createdAt,value
2023-04-28T00:00:51.070Z,3.09
2023-04-28T00:03:18.737Z,3.10
2023-04-28T00:05:45.779Z,3.08
2023-04-28T00:08:12.627Z,3.10
2023-04-28T00:10:39.366Z,3.14
2023-04-28T00:13:06.244Z,3.17
2023-04-28T00:15:33.183Z,3.19
2023-04-28T00:17:59.987Z,3.21
2023-04-28T00:20:26.816Z,3.21
2023-04-28T00:22:53.519Z,3.19
2023-04-28T00:25:20.257Z,3.19
2023-04-28T00:27:47.093Z,3.19
2023-04-28T00:30:14.047Z,3.20
2023-04-28T00:32:40.979Z,3.21
2023-04-28T00:35:08.349Z,3.22
2023-04-28T00:37:37.807Z,3.20
2023-04-28T00:40:05.286Z,3.18
2023-04-28T00:42:32.130Z,3.16
2023-04-28T00:44:59.142Z,3.14
2023-04-28T00:47:26.387Z,3.11
2023-04-28T00:49:54.253Z,3.09
2023-04-28T00:52:20.959Z,3.09
2023-04-28T00:54:48.639Z,3.11
2023-04-28T00:57:15.475Z,3.13
2023-04-28T00:59:42.307Z,3.14
2023-04-28T01:02:09.231Z,3.15
2023-04-28T01:04:36.264Z,3.15
2023-04-28T01:07:04.261Z,3.13
2023-04-28T01:09:31.611Z,3.09
2023-04-28T01:11:58.665Z,3.07
2023-04-28T01:14:40.760Z,3.04
2023-04-28T01:17:08.428Z,3.03
2023-04-28T01:19:36.055Z,3.03
2023-04-28T01:22:03.225Z,3.04
2023-04-28T01:24:30.115Z,3.05
2023-04-28T01:27:00.057Z,3.06
2023-04-28T01:29:27.979Z,3.07
2023-04-28T01:31:55.232Z,3.05
2023-04-28T01:34:22.096Z,3.02
2023-04-28T01:36:48.819Z,2.95
2023-04-28T01:39:15.650Z,2.86
2023-04-28T01:41:42.814Z,2.75
2023-04-28T01:44:09.633Z,2.63
2023-04-28T01:46:36.858Z,2.56
2023-04-28T01:49:03.767Z,2.50
2023-04-28T01:51:31.354Z,2.46
2023-04-28T01:53:58.317Z,2.45
2023-04-28T01:56:25.179Z,2.42
2023-04-28T01:58:52.975Z,2.36
2023-04-28T02:01:20.141Z,2.29
2023-04-28T02:03:49.218Z,2.22
2023-04-28T02:06:16.422Z,2.14
2023-04-28T02:08:43.193Z,2.12
2023-04-28T02:11:12.966Z,2.12
2023-04-28T02:13:39.714Z,2.15
2023-04-28T02:16:07.319Z,2.17
2023-04-28T02:18:36.043Z,2.19
2023-04-28T02:21:11.872Z,2.20
2023-04-28T02:23:39.895Z,2.19
2023-04-28T02:26:06.795Z,2.16
2023-04-28T02:28:33.630Z,2.11
2023-04-28T02:31:05.944Z,2.06
2023-04-28T02:33:32.841Z,2.00
2023-04-28T02:36:00.775Z,1.97
2023-04-28T02:38:27.741Z,1.95
2023-04-28T02:41:05.077Z,1.94
2023-04-28T02:43:32.813Z,1.94
2023-04-28T02:46:00.254Z,1.94
2023-04-28T02:48:27.068Z,1.96
2023-04-28T02:50:54.258Z,1.90
2023-04-28T02:53:22.188Z,1.86
2023-04-28T02:55:49.169Z,1.76
2023-04-28T02:58:18.085Z,1.68
2023-04-28T03:00:46.310Z,1.61
2023-04-28T03:03:13.841Z,1.57
2023-04-28T03:05:40.904Z,1.51
2023-04-28T03:08:07.672Z,1.46
2023-04-28T03:10:34.654Z,1.39
2023-04-28T03:13:01.601Z,1.32
2023-04-28T03:15:29.571Z,1.25
2023-04-28T03:17:56.572Z,1.18
2023-04-28T03:20:24.115Z,1.14
2023-04-28T03:22:50.966Z,1.10
2023-04-28T03:25:18.497Z,1.08
2023-04-28T03:27:48.819Z,1.06
2023-04-28T03:30:16.159Z,1.03
2023-04-28T03:32:42.965Z,0.98
2023-04-28T03:35:10.063Z,0.93
2023-04-28T03:37:36.980Z,0.91
2023-04-28T03:40:04.070Z,0.91
2023-04-28T03:42:38.727Z,0.93
2023-04-28T03:45:09.113Z,0.95
2023-04-28T03:47:36.298Z,0.96
2023-04-28T03:50:03.550Z,0.98
2023-04-28T03:52:31.193Z,0.98
2023-04-28T03:54:58.139Z,1.03
2023-04-28T03:57:25.163Z,1.07
2023-04-28T03:59:52.288Z,1.15
2023-04-28T04:02:19.313Z,1.22
2023-04-28T04:04:46.324Z,1.29
2023-04-28T04:07:13.745Z,1.36
2023-04-28T04:09:40.843Z,1.40
2023-04-28T04:12:07.891Z,1.51
2023-04-28T04:14:34.987Z,1.57
2023-04-28T04:17:01.953Z,1.63
2023-04-28T04:19:29.158Z,1.73
2023-04-28T04:21:56.879Z,1.84
2023-04-28T04:24:23.911Z,2.00
2023-04-28T04:26:50.894Z,2.12
2023-04-28T04:29:27.814Z,2.36
2023-04-28T04:31:54.735Z,2.58
2023-04-28T04:34:21.905Z,2.80
2023-04-28T04:36:49.171Z,2.98
2023-04-28T04:39:16.243Z,3.16
2023-04-28T04:41:43.066Z,3.33
2023-04-28T04:44:23.414Z,3.51
2023-04-28T04:46:52.331Z,3.70
2023-04-28T04:49:20.054Z,3.89
2023-04-28T04:51:46.930Z,4.08
2023-04-28T04:54:14.104Z,4.27
2023-04-28T04:56:42.862Z,4.49
2023-04-28T04:59:10.643Z,4.75
2023-04-28T05:01:53.384Z,5.05
2023-04-28T05:04:20.525Z,5.31
2023-04-28T05:06:47.998Z,5.57
2023-04-28T05:09:15.043Z,5.82
2023-04-28T05:11:41.885Z,6.03
2023-04-28T05:14:08.660Z,6.25
2023-04-28T05:16:36.224Z,6.44
2023-04-28T05:19:15.540Z,6.66
2023-04-28T05:21:42.512Z,6.83
2023-04-28T05:24:09.527Z,7.02
2023-04-28T05:26:36.918Z,7.20
2023-04-28T05:29:08.357Z,7.37
2023-04-28T05:31:35.667Z,7.57
2023-04-28T05:34:03.350Z,7.81
2023-04-28T05:36:30.278Z,8.09
2023-04-28T05:38:57.418Z,8.37
2023-04-28T05:41:24.277Z,8.69
2023-04-28T05:43:51.364Z,9.09
2023-04-28T05:46:30.277Z,9.54
2023-04-28T05:48:59.205Z,10.02
2023-04-28T05:51:27.429Z,10.48
2023-04-28T05:53:54.261Z,10.87
2023-04-28T05:56:21.479Z,11.28
2023-04-28T05:58:50.561Z,11.67
2023-04-28T06:01:18.074Z,12.10
2023-04-28T06:03:46.649Z,12.55
2023-04-28T06:06:13.874Z,12.95
2023-04-28T06:08:41.062Z,13.29
2023-04-28T06:11:07.971Z,13.53
2023-04-28T06:13:35.064Z,13.69
2023-04-28T06:16:03.936Z,13.71
2023-04-28T06:18:33.019Z,13.67
2023-04-28T06:21:01.413Z,13.85
2023-04-28T06:23:28.386Z,13.95
2023-04-28T06:25:55.539Z,14.01
2023-04-28T06:28:22.331Z,14.11
2023-04-28T06:30:49.244Z,14.22
2023-04-28T06:33:16.368Z,14.34
2023-04-28T06:35:43.301Z,14.49
2023-04-28T06:38:10.232Z,14.65
2023-04-28T06:40:37.490Z,14.78
2023-04-28T06:43:06.512Z,15.03
2023-04-28T06:45:38.145Z,15.14
2023-04-28T06:48:06.129Z,15.17
2023-04-28T06:50:33.076Z,15.10
2023-04-28T06:52:59.939Z,15.18
2023-04-28T06:55:29.905Z,15.40
2023-04-28T06:57:58.511Z,15.73
2023-04-28T07:00:25.403Z,16.14
2023-04-28T07:02:52.451Z,16.50
2023-04-28T07:05:19.472Z,16.75
2023-04-28T07:07:47.626Z,16.88
2023-04-28T07:10:15.804Z,17.14
2023-04-28T07:12:42.689Z,17.46
2023-04-28T07:15:10.492Z,17.57
2023-04-28T07:17:38.424Z,17.59
2023-04-28T07:20:07.028Z,17.48
2023-04-28T07:22:33.809Z,17.31
2023-04-28T07:25:00.660Z,17.22
2023-04-28T07:27:27.519Z,17.20
2023-04-28T07:29:54.419Z,17.37
2023-04-28T07:32:22.354Z,17.57
2023-04-28T07:34:49.209Z,17.71
2023-04-28T07:37:16.871Z,17.82
2023-04-28T07:39:43.866Z,17.89
2023-04-28T07:42:11.015Z,17.96
2023-04-28T07:44:38.022Z,18.29
2023-04-28T07:47:05.071Z,18.64
2023-04-28T07:49:32.008Z,18.63
2023-04-28T07:51:58.843Z,18.52
2023-04-28T07:54:25.812Z,18.65
2023-04-28T07:56:53.066Z,18.83
2023-04-28T07:59:19.891Z,19.20
2023-04-28T08:01:46.777Z,19.37
2023-04-28T08:04:14.158Z,19.57
2023-04-28T08:06:41.739Z,19.70
2023-04-28T08:09:09.077Z,19.41
2023-04-28T08:11:35.864Z,19.24
2023-04-28T08:14:03.593Z,18.98
2023-04-28T08:16:31.869Z,18.64
2023-04-28T08:18:59.977Z,18.28
2023-04-28T08:21:27.197Z,18.08
2023-04-28T08:23:54.292Z,18.38
2023-04-28T08:26:21.642Z,18.86
2023-04-28T08:28:48.462Z,19.24
2023-04-28T08:31:15.447Z,19.48
2023-04-28T08:33:44.758Z,19.83
2023-04-28T08:36:14.772Z,20.42
2023-04-28T08:38:42.044Z,20.87
2023-04-28T08:41:08.835Z,21.03
2023-04-28T08:43:36.652Z,21.31
2023-04-28T08:46:08.105Z,21.73
2023-04-28T08:48:42.996Z,22.14
2023-04-28T08:51:14.837Z,22.41
2023-04-28T08:54:11.803Z,22.41
2023-04-28T08:56:37.683Z,22.85
2023-04-28T08:59:05.621Z,22.96
2023-04-28T09:01:32.897Z,22.80
2023-04-28T09:04:03.466Z,22.96
2023-04-28T09:06:36.635Z,23.42
2023-04-28T09:09:20.778Z,23.49
2023-04-28T09:11:52.484Z,23.59
2023-04-28T09:14:19.443Z,23.46
2023-04-28T09:16:46.450Z,23.48
2023-04-28T09:19:13.389Z,23.84
2023-04-28T09:21:57.000Z,24.16
2023-04-28T09:24:28.232Z,23.84
2023-04-28T09:26:55.811Z,23.48
2023-04-28T09:29:23.220Z,23.05
2023-04-28T09:31:50.072Z,22.70
2023-04-28T09:34:17.188Z,22.46
2023-04-28T09:36:44.269Z,22.22
2023-04-28T09:39:12.111Z,21.89
2023-04-28T09:41:40.591Z,21.72
2023-04-28T09:44:14.083Z,21.51
2023-04-28T09:46:42.170Z,21.14
2023-04-28T09:49:09.492Z,20.94
2023-04-28T09:51:36.445Z,20.67
2023-04-28T09:54:04.372Z,20.58
2023-04-28T09:56:33.696Z,20.43
2023-04-28T09:59:01.858Z,20.12
2023-04-28T10:01:33.998Z,20.01
2023-04-28T10:04:02.959Z,20.00
2023-04-28T10:06:30.802Z,20.00
2023-04-28T10:09:00.619Z,19.96
2023-04-28T10:11:28.593Z,19.61
2023-04-28T10:13:55.594Z,19.35
2023-04-28T10:16:23.715Z,19.14
2023-04-28T10:18:51.583Z,19.10
2023-04-28T10:21:21.203Z,19.06
2023-04-28T10:23:51.316Z,18.99
2023-04-28T10:26:22.083Z,18.89
2023-04-28T10:28:51.017Z,18.86
2023-04-28T10:31:21.691Z,18.86
2023-04-28T10:33:49.838Z,18.88
2023-04-28T10:36:47.785Z,18.85
2023-04-28T10:39:15.429Z,18.81
2023-04-28T10:41:42.423Z,18.82
2023-04-28T10:44:31.864Z,18.72
2023-04-28T10:47:08.188Z,18.73
2023-04-28T10:49:58.360Z,18.78
2023-04-28T10:52:34.817Z,18.80
2023-04-28T10:55:22.561Z,18.79
2023-04-28T10:58:13.145Z,18.82
2023-04-28T11:00:40.592Z,18.72
2023-04-28T11:03:07.761Z,18.71
2023-04-28T11:05:36.770Z,18.96
2023-04-28T11:08:19.150Z,19.08
2023-04-28T11:11:16.868Z,19.01
2023-04-28T11:13:47.029Z,18.99
2023-04-28T11:16:17.592Z,19.16
2023-04-28T11:18:55.396Z,19.27
2023-04-28T11:21:24.585Z,19.55
2023-04-28T11:23:52.115Z,19.91
2023-04-28T11:26:19.475Z,20.21
2023-04-28T11:28:48.767Z,20.43
2023-04-28T11:31:19.464Z,20.65
2023-04-28T11:33:51.554Z,20.85
2023-04-28T11:36:28.352Z,20.95
2023-04-28T11:38:57.245Z,21.27
2023-04-28T11:41:24.505Z,21.60
2023-04-28T11:43:51.708Z,21.83
2023-04-28T11:46:20.513Z,21.79
2023-04-28T11:48:48.359Z,21.79
2023-04-28T11:51:35.507Z,21.93
2023-04-28T11:54:03.730Z,22.43
2023-04-28T11:56:32.155Z,22.85
2023-04-28T11:59:03.773Z,22.94
2023-04-28T12:01:32.613Z,23.21
2023-04-28T12:03:59.873Z,23.79
2023-04-28T12:06:26.934Z,24.02
2023-04-28T12:08:53.793Z,24.26
2023-04-28T12:11:22.598Z,24.51
2023-04-28T12:14:06.425Z,24.52
2023-04-28T12:16:43.964Z,24.62
2023-04-28T12:19:12.658Z,24.92
2023-04-28T12:21:40.320Z,25.17
2023-04-28T12:24:23.270Z,25.27
2023-04-28T12:26:50.148Z,25.20
2023-04-28T12:29:36.969Z,25.07
2023-04-28T12:35:50.678Z,24.99
2023-04-28T12:38:18.078Z,24.92
2023-04-28T12:40:44.953Z,24.84
2023-04-28T12:43:11.813Z,24.94
2023-04-28T12:45:39.318Z,25.22
2023-04-28T12:48:06.583Z,25.57
2023-04-28T12:50:33.831Z,25.69
2023-04-28T12:53:00.947Z,25.54
2023-04-28T12:55:29.256Z,25.36
2023-04-28T12:57:56.127Z,25.52
2023-04-28T13:00:25.262Z,25.70
2023-04-28T13:02:53.501Z,25.64
2023-04-28T13:05:20.481Z,25.28
2023-04-28T13:07:47.857Z,25.31
2023-04-28T13:10:15.026Z,25.75
2023-04-28T13:12:41.943Z,26.02
2023-04-28T13:15:09.675Z,26.18
2023-04-28T13:17:36.600Z,26.19
2023-04-28T13:20:05.261Z,25.99
2023-04-28T13:22:32.376Z,25.89
2023-04-28T13:24:59.195Z,26.03
2023-04-28T13:27:26.189Z,25.74
2023-04-28T13:29:52.996Z,25.35
2023-04-28T13:32:20.024Z,25.31
2023-04-28T13:34:47.143Z,25.51
2023-04-28T13:37:14.192Z,25.49
2023-04-28T13:39:41.195Z,25.53
2023-04-28T13:42:08.107Z,25.48
2023-04-28T13:44:35.157Z,25.44
2023-04-28T13:47:02.262Z,25.59
2023-04-28T13:49:29.502Z,25.81
2023-04-28T13:51:56.882Z,25.83
2023-04-28T13:54:23.667Z,25.65
2023-04-28T13:56:50.801Z,25.65
2023-04-28T13:59:17.890Z,25.53
2023-04-28T14:01:44.929Z,25.45
2023-04-28T14:04:12.126Z,25.58
2023-04-28T14:06:39.649Z,25.65
2023-04-28T14:09:06.770Z,25.55
2023-04-28T14:11:33.791Z,25.22
2023-04-28T14:14:00.915Z,24.82
2023-04-28T14:16:28.089Z,24.43
2023-04-28T14:18:55.725Z,24.08
2023-04-28T14:21:22.556Z,23.60
2023-04-28T14:23:49.500Z,22.98
2023-04-28T14:26:16.300Z,22.39
2023-04-28T14:28:43.171Z,21.98
2023-04-28T14:31:10.096Z,21.51
2023-04-28T14:33:37.214Z,21.11
2023-04-28T14:36:05.266Z,20.78
2023-04-28T14:38:32.179Z,20.55
2023-04-28T14:40:59.087Z,20.36
2023-04-28T14:43:26.048Z,20.17
2023-04-28T14:45:53.542Z,19.92
2023-04-28T14:48:20.508Z,19.68
2023-04-28T14:50:47.746Z,19.56
2023-04-28T14:53:14.771Z,19.55
2023-04-28T14:55:41.666Z,19.43
2023-04-28T14:58:08.533Z,19.26
2023-04-28T15:00:36.175Z,19.11
2023-04-28T15:03:03.246Z,18.90
2023-04-28T15:05:30.299Z,18.74
2023-04-28T15:07:57.246Z,18.63
2023-04-28T15:10:24.175Z,18.59
2023-04-28T15:12:51.045Z,18.63
2023-04-28T15:15:17.869Z,18.64
2023-04-28T15:17:45.617Z,18.64
2023-04-28T15:20:12.611Z,18.56
2023-04-28T15:22:39.537Z,18.53
2023-04-28T15:25:06.945Z,18.50
2023-04-28T15:27:33.752Z,18.54
2023-04-28T15:30:01.500Z,18.61
2023-04-28T15:32:30.382Z,18.64
2023-04-28T15:34:57.714Z,18.58
2023-04-28T15:37:43.154Z,18.48
2023-04-28T15:40:13.041Z,18.32
2023-04-28T15:42:43.100Z,18.21
2023-04-28T15:45:11.498Z,18.19
2023-04-28T15:47:39.346Z,18.16
2023-04-28T15:50:08.535Z,18.16
2023-04-28T15:52:38.374Z,18.18
2023-04-28T15:55:05.638Z,18.20
2023-04-28T15:57:32.480Z,18.20
2023-04-28T15:59:59.369Z,18.20
2023-04-28T16:02:26.313Z,18.17
2023-04-28T16:04:53.628Z,18.07
2023-04-28T16:07:20.890Z,18.02
2023-04-28T16:09:47.657Z,17.95
2023-04-28T16:12:14.503Z,17.84
2023-04-28T16:14:41.335Z,17.74
2023-04-28T16:17:08.273Z,17.69
2023-04-28T16:19:35.082Z,17.63
2023-04-28T16:22:01.990Z,17.57
2023-04-28T16:24:28.898Z,17.51
2023-04-28T16:26:55.986Z,17.48
2023-04-28T16:29:23.698Z,17.45
2023-04-28T16:31:50.563Z,17.40
2023-04-28T16:34:19.324Z,17.26
2023-04-28T16:36:46.527Z,17.15
2023-04-28T16:39:13.524Z,17.03
2023-04-28T16:41:40.356Z,16.99
2023-04-28T16:44:08.274Z,16.93
2023-04-28T16:46:35.249Z,16.89
2023-04-28T16:49:02.112Z,16.85
2023-04-28T16:51:29.012Z,16.80
2023-04-28T16:53:55.785Z,16.73
2023-04-28T16:56:22.550Z,16.65
2023-04-28T16:58:49.513Z,16.56
2023-04-28T17:01:16.438Z,16.48
2023-04-28T17:03:43.582Z,16.39
2023-04-28T17:06:11.360Z,16.27
2023-04-28T17:08:39.541Z,16.17
2023-04-28T17:11:06.776Z,16.04
2023-04-28T17:13:34.177Z,15.91
2023-04-28T17:16:01.740Z,15.76
2023-04-28T17:18:28.814Z,15.61
2023-04-28T17:20:56.305Z,15.43
2023-04-28T17:23:23.219Z,15.28
2023-04-28T17:25:50.055Z,15.15
2023-04-28T17:28:16.888Z,15.01
2023-04-28T17:30:47.092Z,14.86
2023-04-28T17:33:15.265Z,14.72
2023-04-28T17:35:42.086Z,14.60
2023-04-28T17:38:09.213Z,14.49
2023-04-28T17:40:36.239Z,14.40
2023-04-28T17:43:04.201Z,14.32
2023-04-28T17:45:31.128Z,14.24
2023-04-28T17:48:00.620Z,14.16
2023-04-28T17:50:28.030Z,14.09
2023-04-28T17:52:55.118Z,14.02
2023-04-28T17:55:22.345Z,13.95
2023-04-28T17:57:49.271Z,13.88
2023-04-28T18:00:16.679Z,13.82
2023-04-28T18:02:43.658Z,13.76
2023-04-28T18:05:11.090Z,13.67
2023-04-28T18:07:39.409Z,13.62
2023-04-28T18:10:06.485Z,13.57
2023-04-28T18:12:33.314Z,13.53
2023-04-28T18:15:01.479Z,13.49
2023-04-28T18:17:28.352Z,13.46
2023-04-28T18:19:57.026Z,13.42
2023-04-28T18:22:24.125Z,13.39
2023-04-28T18:24:51.323Z,13.37
2023-04-28T18:27:19.359Z,13.34
2023-04-28T18:29:46.498Z,13.33
2023-04-28T18:32:14.986Z,13.30
2023-04-28T18:34:43.591Z,13.28
2023-04-28T18:37:11.203Z,13.25
2023-04-28T18:39:38.083Z,13.24
2023-04-28T18:42:05.018Z,13.21
2023-04-28T18:44:32.034Z,13.18
2023-04-28T18:47:00.178Z,13.15
2023-04-28T18:49:27.659Z,13.11
2023-04-28T18:51:54.771Z,13.08
2023-04-28T18:54:21.790Z,13.05
2023-04-28T18:56:48.626Z,13.03
2023-04-28T18:59:15.482Z,13.02
2023-04-28T19:01:42.577Z,13.01
2023-04-28T19:04:09.899Z,13.01
2023-04-28T19:06:36.937Z,13.01
2023-04-28T19:09:03.826Z,13.00
2023-04-28T19:11:30.921Z,12.99
2023-04-28T19:13:58.298Z,12.96
2023-04-28T19:16:26.145Z,12.95
2023-04-28T19:18:53.154Z,12.94
2023-04-28T19:21:20.399Z,12.92
2023-04-28T19:23:48.406Z,12.91
2023-04-28T19:26:15.761Z,12.94
2023-04-28T19:28:43.203Z,12.93
2023-04-28T19:31:10.453Z,12.93
2023-04-28T19:33:37.404Z,12.91
2023-04-28T19:36:04.853Z,12.88
2023-04-28T19:38:31.703Z,12.84
2023-04-28T19:41:01.160Z,12.81
2023-04-28T19:43:28.110Z,12.77
2023-04-28T19:45:55.015Z,12.75
2023-04-28T19:48:21.978Z,12.71
2023-04-28T19:50:49.152Z,12.68
2023-04-28T19:53:16.079Z,12.64
2023-04-28T19:55:43.077Z,12.60
2023-04-28T19:58:10.614Z,12.55
2023-04-28T20:00:37.543Z,12.49
2023-04-28T20:03:04.592Z,12.46
2023-04-28T20:05:31.766Z,12.41
2023-04-28T20:07:58.764Z,12.33
2023-04-28T20:10:25.532Z,12.24
2023-04-28T20:12:53.918Z,12.15
2023-04-28T20:15:20.981Z,12.06
2023-04-28T20:17:47.858Z,11.95
2023-04-28T20:20:14.755Z,11.85
2023-04-28T20:22:41.702Z,11.75
2023-04-28T20:25:10.641Z,11.63
2023-04-28T20:27:37.977Z,11.51
2023-04-28T20:30:05.662Z,11.38
2023-04-28T20:32:32.644Z,11.27
2023-04-28T20:34:59.488Z,11.13
2023-04-28T20:37:26.715Z,11.00
2023-04-28T20:39:53.645Z,10.79
2023-04-28T20:42:20.538Z,10.62
2023-04-28T20:44:47.439Z,10.42
2023-04-28T20:47:14.338Z,10.23
2023-04-28T20:49:42.032Z,10.02
2023-04-28T20:52:08.890Z,9.83
2023-04-28T20:54:36.245Z,9.63
2023-04-28T20:57:04.795Z,9.40
2023-04-28T20:59:32.741Z,9.17
2023-04-28T21:02:00.395Z,8.97
2023-04-28T21:04:28.450Z,8.77
2023-04-28T21:06:55.698Z,8.57
2023-04-28T21:09:25.276Z,8.40
2023-04-28T21:11:52.661Z,8.21
2023-04-28T21:14:20.172Z,8.03
2023-04-28T21:16:47.067Z,7.87
2023-04-28T21:19:13.993Z,7.72
2023-04-28T21:21:41.138Z,7.61
2023-04-28T21:24:09.213Z,7.50
2023-04-28T21:26:37.053Z,7.39
2023-04-28T21:29:03.993Z,7.26
2023-04-28T21:31:31.358Z,7.15
2023-04-28T21:33:58.268Z,7.03
2023-04-28T21:36:25.167Z,6.92
2023-04-28T21:38:51.981Z,6.81
2023-04-28T21:41:18.993Z,6.70
2023-04-28T21:43:46.049Z,6.58
2023-04-28T21:46:13.457Z,6.46
2023-04-28T21:48:40.358Z,6.35
2023-04-28T21:51:07.280Z,6.29
2023-04-28T21:53:34.169Z,6.20
2023-04-28T21:56:01.157Z,6.12
2023-04-28T21:58:27.936Z,6.07
2023-04-28T22:00:55.244Z,6.05
2023-04-28T22:03:22.504Z,6.05
2023-04-28T22:05:50.417Z,6.04
2023-04-28T22:08:17.299Z,6.06
2023-04-28T22:10:45.869Z,6.08
2023-04-28T22:13:13.514Z,6.10
2023-04-28T22:15:40.339Z,6.10
2023-04-28T22:18:08.375Z,6.09
2023-04-28T22:20:35.985Z,6.08
2023-04-28T22:23:02.771Z,6.07
2023-04-28T22:25:29.599Z,6.04
2023-04-28T22:27:56.476Z,5.99
2023-04-28T22:30:25.754Z,5.93
2023-04-28T22:32:53.366Z,5.86
2023-04-28T22:35:20.369Z,5.79
2023-04-28T22:37:47.118Z,5.73
2023-04-28T22:40:14.162Z,5.67
2023-04-28T22:42:42.203Z,5.63
2023-04-28T22:45:10.751Z,5.56
2023-04-28T22:47:40.626Z,5.52
2023-04-28T22:50:09.904Z,5.53
2023-04-28T22:52:36.897Z,5.52
2023-04-28T22:55:04.720Z,5.52
2023-04-28T22:57:31.485Z,5.52
2023-04-28T22:59:58.391Z,5.51
2023-04-28T23:02:25.475Z,5.48
2023-04-28T23:04:52.494Z,5.45
2023-04-28T23:07:19.550Z,5.41
2023-04-28T23:09:46.288Z,5.38
2023-04-28T23:12:13.116Z,5.35
2023-04-28T23:14:39.873Z,5.33
2023-04-28T23:17:06.673Z,5.30
2023-04-28T23:19:35.721Z,5.27
2023-04-28T23:22:02.565Z,5.25
2023-04-28T23:24:29.385Z,5.21
2023-04-28T23:26:56.762Z,5.18
2023-04-28T23:29:23.986Z,5.18
2023-04-28T23:31:54.682Z,5.20
2023-04-28T23:34:23.060Z,5.24
2023-04-28T23:36:50.537Z,5.29
2023-04-28T23:39:18.135Z,5.35
2023-04-28T23:41:44.986Z,5.42
2023-04-28T23:44:11.743Z,5.48
2023-04-28T23:46:38.517Z,5.54
2023-04-28T23:49:05.415Z,5.59
2023-04-28T23:51:32.435Z,5.62
2023-04-28T23:53:59.439Z,5.64
2023-04-28T23:56:26.936Z,5.66
2023-04-28T23:58:54.150Z,5.70
